Decoded Metar for KSMX (SANTA MARIA in CA, USA) (IATA:SMX) | Meteo·Mobile Aviation Weather
aviador You're here:

KSMX Decoded Metar

SANTA MARIA in CA, USA
Report Time2019-03-22 23:51:00
UTC Time2019-03-23 00:30:17
Flight Rules vfr VFR
Wind290° at 15 kt
W.Decomp.*RWY 30: 13.7 kt HW 6.1 kt LCW
RWY 20: 3.6 kt HW 14.6 kt RCW
W.Rank290° ranks 4
Current wind is above 290° avg. (9.0)
Visibility9999 m
Phenomena:N/A
Clouds:N/A
Expected CloudBase > 3,200 ft AGL from Temp-Dew spread
CeilingNone
Temp17°C (ISA +2)
Dew Point09°C (59% RH)
AAT11.4°C
QNH1022 hPa
Density Alt387 ft
Elevation243 ft
Report Wrong Elevation
Raw Report
KSMX 222351Z 29015KT 8SM CLR 17/09 A3017 RMK AO2 SLP220 T01670094
10178 20150 56011=

Extra information for KSMX:More info

Metar Taf Metar & Taf Last 4 Metars F.Rules Stats Wind Profile Meteogram Temp Stats Airport Information Weather charts Add Link Nearby VenuesMetar ALERT Operation Metar Decoded Social comments

AIRNAV info for KSMX